createdAt,value
2019-06-01T00:01:21.878Z,24.40
2019-06-01T00:06:28.166Z,24.50
2019-06-01T00:11:33.902Z,24.50
2019-06-01T00:16:41.991Z,24.50
2019-06-01T00:21:49.450Z,24.50
2019-06-01T00:26:55.511Z,24.50
2019-06-01T00:32:01.482Z,24.50
2019-06-01T00:37:07.808Z,24.50
2019-06-01T00:42:13.686Z,24.60
2019-06-01T00:47:22.014Z,24.50
2019-06-01T00:52:27.690Z,24.60
2019-06-01T00:57:33.530Z,24.60
2019-06-01T01:02:39.498Z,24.60
2019-06-01T01:07:46.561Z,24.50
2019-06-01T01:13:26.795Z,24.60
2019-06-01T01:18:32.886Z,24.50
2019-06-01T01:23:38.491Z,24.50
2019-06-01T01:28:44.099Z,24.50
2019-06-01T01:33:49.707Z,24.40
2019-06-01T01:38:56.293Z,24.40
2019-06-01T01:44:02.393Z,24.30
2019-06-01T01:49:08.146Z,24.30
2019-06-01T01:54:14.369Z,24.20
2019-06-01T01:59:20.344Z,24.20
2019-06-01T02:04:26.406Z,24.20
2019-06-01T02:09:32.552Z,24.10
2019-06-01T02:14:38.305Z,24.10
2019-06-01T02:19:44.879Z,24.10
2019-06-01T02:24:53.772Z,24.10
2019-06-01T02:29:59.663Z,24.10
2019-06-01T02:35:06.385Z,24.10
2019-06-01T02:40:12.662Z,24.00
2019-06-01T02:45:19.455Z,24.00
2019-06-01T02:50:25.490Z,24.00
2019-06-01T02:55:31.493Z,24.00
2019-06-01T03:01:10.361Z,24.00
2019-06-01T03:06:17.969Z,24.00
2019-06-01T03:11:26.882Z,24.00
2019-06-01T03:16:39.384Z,24.00
2019-06-01T03:21:47.449Z,24.00
2019-06-01T03:26:55.433Z,24.00
2019-06-01T03:32:24.248Z,24.00
2019-06-01T03:37:10.741Z,24.00
2019-06-01T03:42:17.533Z,24.00
2019-06-01T03:47:23.555Z,24.00
2019-06-01T03:52:30.218Z,24.00
2019-06-01T03:57:36.987Z,24.00
2019-06-01T04:02:43.241Z,24.10
2019-06-01T04:07:49.397Z,24.10
2019-06-01T04:12:55.558Z,24.10
2019-06-01T04:18:01.935Z,24.10
2019-06-01T04:23:08.678Z,24.10
2019-06-01T04:28:14.628Z,24.20
2019-06-01T04:33:20.535Z,24.20
2019-06-01T04:38:26.713Z,24.30
2019-06-01T04:43:33.071Z,24.30
2019-06-01T04:48:38.965Z,24.30
2019-06-01T04:53:44.930Z,24.30
2019-06-01T04:58:52.436Z,24.30
2019-06-01T05:03:57.978Z,24.40
2019-06-01T05:09:05.207Z,24.40
2019-06-01T05:14:11.593Z,24.40
2019-06-01T05:19:17.211Z,24.50
2019-06-01T05:24:22.750Z,24.50
2019-06-01T05:29:28.423Z,24.50
2019-06-01T05:34:33.941Z,24.50
2019-06-01T05:39:41.039Z,24.50
2019-06-01T05:44:46.611Z,24.60
2019-06-01T05:49:52.148Z,24.60
2019-06-01T05:54:57.629Z,24.70
2019-06-01T06:00:03.181Z,24.80
2019-06-01T06:05:10.629Z,24.80
2019-06-01T06:10:18.499Z,24.90
2019-06-01T06:15:24.499Z,25.00
2019-06-01T06:20:31.546Z,25.10
2019-06-01T06:25:46.608Z,25.20
2019-06-01T06:31:04.946Z,25.30
2019-06-01T06:36:10.883Z,25.40
2019-06-01T06:41:18.151Z,25.50
2019-06-01T06:46:24.939Z,25.60
2019-06-01T06:51:31.016Z,25.70
2019-06-01T06:56:37.153Z,25.90
2019-06-01T07:01:43.191Z,26.00
2019-06-01T07:06:48.976Z,26.10
2019-06-01T07:11:54.985Z,26.20
2019-06-01T07:17:01.171Z,26.30
2019-06-01T07:22:07.448Z,26.60
2019-06-01T07:27:13.599Z,26.70
2019-06-01T07:32:20.201Z,26.90
2019-06-01T07:37:26.429Z,27.10
2019-06-01T07:42:33.064Z,27.30
2019-06-01T07:47:38.898Z,27.40
2019-06-01T07:52:45.110Z,27.50
2019-06-01T07:57:51.236Z,27.60
2019-06-01T08:02:57.016Z,27.70
2019-06-01T08:08:03.178Z,27.80
2019-06-01T08:13:09.176Z,27.80
2019-06-01T08:18:15.283Z,28.00
2019-06-01T08:23:23.987Z,28.10
2019-06-01T08:28:30.921Z,28.30
2019-06-01T08:33:36.829Z,28.50
2019-06-01T08:38:42.472Z,28.70
2019-06-01T08:43:48.077Z,28.90
2019-06-01T08:48:53.742Z,29.10
2019-06-01T08:53:59.245Z,29.30
2019-06-01T08:59:05.214Z,29.50
2019-06-01T09:04:10.811Z,29.50
2019-06-01T09:09:16.350Z,29.70
2019-06-01T09:14:21.809Z,29.80
2019-06-01T09:19:27.393Z,30.00
2019-06-01T09:24:33.963Z,30.20
2019-06-01T09:29:39.986Z,30.40
2019-06-01T09:34:45.893Z,30.60
2019-06-01T09:39:51.570Z,30.80
2019-06-01T09:44:57.092Z,31.10
2019-06-01T09:50:02.627Z,31.20
2019-06-01T09:55:09.485Z,31.40
2019-06-01T10:00:15.844Z,31.60
2019-06-01T10:05:21.646Z,31.70
2019-06-01T10:10:27.381Z,31.80
2019-06-01T10:15:38.518Z,31.80
2019-06-01T10:20:45.792Z,31.80
2019-06-01T10:25:54.169Z,31.80
2019-06-01T10:31:01.719Z,31.90
2019-06-01T10:36:19.978Z,32.00
2019-06-01T10:41:17.346Z,31.90
2019-06-01T10:46:23.920Z,32.00
2019-06-01T10:51:29.858Z,32.00
2019-06-01T10:56:36.256Z,32.00
2019-06-01T11:01:42.719Z,32.00
2019-06-01T11:06:49.007Z,32.00
2019-06-01T11:11:55.130Z,32.10
2019-06-01T11:17:01.058Z,32.20
2019-06-01T11:22:07.044Z,32.20
2019-06-01T11:27:13.002Z,32.20
2019-06-01T11:32:19.143Z,32.40
2019-06-01T11:37:24.926Z,32.50
2019-06-01T11:42:30.953Z,32.70
2019-06-01T11:47:38.908Z,32.80
2019-06-01T11:52:45.517Z,32.90
2019-06-01T11:57:51.429Z,33.00
2019-06-01T12:02:57.432Z,33.00
2019-06-01T12:08:03.715Z,33.00
2019-06-01T12:13:12.322Z,33.10
2019-06-01T12:18:18.215Z,33.20
2019-06-01T12:23:24.075Z,33.30
2019-06-01T12:28:30.013Z,33.40
2019-06-01T12:33:36.042Z,33.40
2019-06-01T12:39:00.941Z,33.50
2019-06-01T12:44:15.768Z,33.50
2019-06-01T12:49:21.944Z,33.60
2019-06-01T12:54:28.395Z,33.70
2019-06-01T12:59:34.974Z,33.70
2019-06-01T13:04:42.674Z,33.80
2019-06-01T13:09:49.085Z,33.90
2019-06-01T13:14:55.157Z,34.00
2019-06-01T13:20:01.598Z,34.00
2019-06-01T13:25:08.336Z,34.10
2019-06-01T13:30:14.558Z,34.00
2019-06-01T13:35:20.393Z,34.10
2019-06-01T13:40:26.041Z,34.10
2019-06-01T13:45:31.832Z,34.00
2019-06-01T13:50:37.982Z,34.00
2019-06-01T13:55:44.078Z,34.00
2019-06-01T14:00:51.553Z,33.90
2019-06-01T14:06:00.898Z,33.90
2019-06-01T14:11:05.445Z,34.00
2019-06-01T14:16:11.513Z,34.00
2019-06-01T14:21:17.290Z,34.00
2019-06-01T14:26:23.214Z,34.10
2019-06-01T14:31:29.247Z,34.10
2019-06-01T14:36:35.115Z,34.10
2019-06-01T14:41:40.922Z,34.20
2019-06-01T14:46:56.119Z,34.20
2019-06-01T14:51:55.773Z,34.10
2019-06-01T14:57:01.671Z,34.10
2019-06-01T15:02:07.760Z,34.20
2019-06-01T15:07:13.868Z,34.00
2019-06-01T15:12:19.732Z,34.00
2019-06-01T15:17:25.505Z,33.90
2019-06-01T15:22:31.498Z,33.80
2019-06-01T15:27:37.338Z,33.70
2019-06-01T15:32:43.674Z,33.60
2019-06-01T15:37:51.367Z,33.50
2019-06-01T15:42:57.700Z,33.40
2019-06-01T15:48:03.819Z,33.30
2019-06-01T15:53:10.045Z,33.20
2019-06-01T15:58:15.834Z,33.10
2019-06-01T16:03:21.590Z,33.00
2019-06-01T16:08:27.598Z,32.90
2019-06-01T16:13:33.455Z,32.70
2019-06-01T16:18:39.189Z,32.70
2019-06-01T16:23:50.092Z,32.60
2019-06-01T16:28:52.793Z,32.50
2019-06-01T16:33:58.938Z,32.40
2019-06-01T16:39:08.116Z,32.40
2019-06-01T16:44:14.973Z,32.30
2019-06-01T16:49:21.005Z,32.20
2019-06-01T16:54:27.601Z,32.20
2019-06-01T16:59:33.493Z,32.10
2019-06-01T17:04:39.780Z,32.00
2019-06-01T17:09:45.921Z,32.00
2019-06-01T17:14:52.381Z,31.90
2019-06-01T17:19:59.008Z,31.80
2019-06-01T17:25:05.814Z,31.70
2019-06-01T17:30:13.479Z,31.60
2019-06-01T17:35:19.838Z,31.60
2019-06-01T17:40:36.610Z,31.60
2019-06-01T17:45:34.575Z,31.50
2019-06-01T17:50:40.882Z,31.40
2019-06-01T17:55:47.037Z,31.40
2019-06-01T18:00:53.763Z,31.30
2019-06-01T18:05:59.858Z,31.30
2019-06-01T18:11:08.620Z,31.30
2019-06-01T18:16:16.655Z,31.20
2019-06-01T18:21:23.400Z,31.10
2019-06-01T18:26:29.038Z,31.10
2019-06-01T18:31:42.663Z,31.00
2019-06-01T18:36:49.733Z,31.00
2019-06-01T18:41:56.126Z,30.90
2019-06-01T18:47:05.499Z,30.80
2019-06-01T18:52:12.695Z,30.70
2019-06-01T18:57:21.385Z,30.60
2019-06-01T19:02:26.953Z,30.50
2019-06-01T19:07:32.789Z,30.40
2019-06-01T19:12:39.069Z,30.40
2019-06-01T19:17:45.103Z,30.20
2019-06-01T19:22:51.133Z,30.20
2019-06-01T19:27:57.279Z,30.00
2019-06-01T19:33:03.646Z,29.90
2019-06-01T19:38:11.228Z,29.80
2019-06-01T19:43:17.785Z,29.70
2019-06-01T19:48:24.311Z,29.70
2019-06-01T19:53:30.108Z,29.60
2019-06-01T19:58:36.509Z,29.50
2019-06-01T20:03:42.855Z,29.40
2019-06-01T20:08:49.264Z,29.40
2019-06-01T20:13:55.598Z,29.30
2019-06-01T20:19:07.169Z,29.20
2019-06-01T20:24:13.084Z,29.10
2019-06-01T20:29:19.771Z,29.10
2019-06-01T20:34:25.955Z,29.00
2019-06-01T20:39:32.298Z,29.00
2019-06-01T20:44:38.232Z,28.90
2019-06-01T20:49:45.441Z,28.90
2019-06-01T20:54:51.536Z,28.80
2019-06-01T20:59:57.281Z,28.70
2019-06-01T21:05:04.669Z,28.60
2019-06-01T21:10:13.891Z,28.60
2019-06-01T21:15:23.156Z,28.50
2019-06-01T21:20:30.077Z,28.40
2019-06-01T21:25:35.838Z,28.30
2019-06-01T21:30:41.821Z,28.30
2019-06-01T21:35:47.495Z,28.30
2019-06-01T21:40:54.131Z,28.20
2019-06-01T21:45:59.889Z,28.20
2019-06-01T21:51:05.686Z,28.20
2019-06-01T21:56:11.534Z,28.20
2019-06-01T22:01:18.557Z,28.10
2019-06-01T22:06:25.652Z,28.10
2019-06-01T22:11:31.609Z,28.10
2019-06-01T22:16:37.516Z,28.10
2019-06-01T22:21:43.268Z,28.10
2019-06-01T22:26:49.212Z,28.10
2019-06-01T22:31:55.054Z,28.10
2019-06-01T22:37:03.754Z,28.10
2019-06-01T22:42:09.506Z,28.10
2019-06-01T22:47:15.086Z,28.10
2019-06-01T22:52:20.965Z,28.10
2019-06-01T22:57:26.652Z,28.10
2019-06-01T23:02:33.753Z,28.10
2019-06-01T23:07:39.401Z,28.10
2019-06-01T23:12:44.918Z,28.10
2019-06-01T23:17:50.509Z,28.00
2019-06-01T23:22:55.982Z,28.00
2019-06-01T23:28:02.472Z,28.00
2019-06-01T23:33:08.068Z,28.00
2019-06-01T23:38:13.534Z,27.90
2019-06-01T23:43:19.179Z,27.90
2019-06-01T23:48:25.099Z,27.90
2019-06-01T23:53:31.699Z,27.90
2019-06-01T23:58:37.422Z,27.80
